sensor_id;sensor_type;location;lat;lon;timestamp;P1;durP1;ratioP1;P2;durP2;ratioP2
50872;SDS011;72604;40.088;18.346;2024-03-07T00:02:42;14.57;;;5.55;;
50872;SDS011;72604;40.088;18.346;2024-03-07T00:06:23;17.88;;;8.15;;
50872;SDS011;72604;40.088;18.346;2024-03-07T00:10:04;16.55;;;6.82;;
50872;SDS011;72604;40.088;18.346;2024-03-07T00:13:47;14.82;;;6.55;;
50872;SDS011;72604;40.088;18.346;2024-03-07T00:17:29;15.48;;;7.57;;
50872;SDS011;72604;40.088;18.346;2024-03-07T00:21:11;20.13;;;6.45;;
50872;SDS011;72604;40.088;18.346;2024-03-07T00:24:52;13.23;;;5.88;;
50872;SDS011;72604;40.088;18.346;2024-03-07T00:28:33;13.65;;;5.40;;
50872;SDS011;72604;40.088;18.346;2024-03-07T00:32:19;12.18;;;5.40;;
50872;SDS011;72604;40.088;18.346;2024-03-07T00:36:00;12.35;;;5.50;;
50872;SDS011;72604;40.088;18.346;2024-03-07T00:39:42;14.35;;;5.28;;
50872;SDS011;72604;40.088;18.346;2024-03-07T00:43:23;10.30;;;4.30;;
50872;SDS011;72604;40.088;18.346;2024-03-07T00:47:05;14.40;;;5.18;;
50872;SDS011;72604;40.088;18.346;2024-03-07T00:50:46;10.25;;;4.20;;
50872;SDS011;72604;40.088;18.346;2024-03-07T00:54:27;11.48;;;3.50;;
50872;SDS011;72604;40.088;18.346;2024-03-07T00:58:13;10.32;;;3.40;;
50872;SDS011;72604;40.088;18.346;2024-03-07T01:01:54;10.02;;;2.80;;
50872;SDS011;72604;40.088;18.346;2024-03-07T01:05:35;11.73;;;3.92;;
50872;SDS011;72604;40.088;18.346;2024-03-07T01:09:16;7.15;;;3.35;;
50872;SDS011;72604;40.088;18.346;2024-03-07T01:12:58;12.40;;;3.13;;
50872;SDS011;72604;40.088;18.346;2024-03-07T01:16:43;11.48;;;3.00;;
50872;SDS011;72604;40.088;18.346;2024-03-07T01:20:23;7.80;;;2.75;;
50872;SDS011;72604;40.088;18.346;2024-03-07T01:24:05;10.82;;;2.90;;
50872;SDS011;72604;40.088;18.346;2024-03-07T01:27:46;9.40;;;2.40;;
50872;SDS011;72604;40.088;18.346;2024-03-07T01:31:28;11.38;;;2.03;;
50872;SDS011;72604;40.088;18.346;2024-03-07T01:35:11;8.45;;;2.08;;
50872;SDS011;72604;40.088;18.346;2024-03-07T01:38:53;5.20;;;1.80;;
50872;SDS011;72604;40.088;18.346;2024-03-07T01:42:34;12.98;;;2.13;;
50872;SDS011;72604;40.088;18.346;2024-03-07T01:46:15;6.85;;;2.13;;
50872;SDS011;72604;40.088;18.346;2024-03-07T01:49:56;6.38;;;1.63;;
50872;SDS011;72604;40.088;18.346;2024-03-07T01:53:40;9.43;;;2.15;;
50872;SDS011;72604;40.088;18.346;2024-03-07T01:57:21;7.63;;;1.92;;
50872;SDS011;72604;40.088;18.346;2024-03-07T02:01:02;10.95;;;2.83;;
50872;SDS011;72604;40.088;18.346;2024-03-07T02:04:44;6.80;;;1.95;;
50872;SDS011;72604;40.088;18.346;2024-03-07T02:08:24;12.52;;;2.58;;
50872;SDS011;72604;40.088;18.346;2024-03-07T02:12:07;11.85;;;2.42;;
50872;SDS011;72604;40.088;18.346;2024-03-07T02:15:48;10.73;;;2.40;;
50872;SDS011;72604;40.088;18.346;2024-03-07T02:19:29;7.53;;;2.17;;
50872;SDS011;72604;40.088;18.346;2024-03-07T02:23:13;9.07;;;1.70;;
50872;SDS011;72604;40.088;18.346;2024-03-07T02:26:55;6.18;;;2.00;;
50872;SDS011;72604;40.088;18.346;2024-03-07T02:30:36;8.55;;;1.70;;
50872;SDS011;72604;40.088;18.346;2024-03-07T02:34:17;7.82;;;1.88;;
50872;SDS011;72604;40.088;18.346;2024-03-07T02:37:58;5.95;;;1.63;;
50872;SDS011;72604;40.088;18.346;2024-03-07T02:41:41;3.22;;;1.20;;
50872;SDS011;72604;40.088;18.346;2024-03-07T02:45:22;3.90;;;1.02;;
50872;SDS011;72604;40.088;18.346;2024-03-07T02:49:03;4.07;;;1.00;;
50872;SDS011;72604;40.088;18.346;2024-03-07T02:52:44;3.45;;;0.70;;
50872;SDS011;72604;40.088;18.346;2024-03-07T02:56:25;2.60;;;0.82;;
50872;SDS011;72604;40.088;18.346;2024-03-07T03:00:07;2.05;;;0.93;;
50872;SDS011;72604;40.088;18.346;2024-03-07T03:03:59;3.63;;;0.95;;
50872;SDS011;72604;40.088;18.346;2024-03-07T03:07:39;3.35;;;0.80;;
50872;SDS011;72604;40.088;18.346;2024-03-07T03:11:20;5.25;;;0.90;;
50872;SDS011;72604;40.088;18.346;2024-03-07T03:15:01;3.00;;;0.98;;
50872;SDS011;72604;40.088;18.346;2024-03-07T03:18:45;6.72;;;1.13;;
50872;SDS011;72604;40.088;18.346;2024-03-07T03:22:28;3.47;;;1.25;;
50872;SDS011;72604;40.088;18.346;2024-03-07T03:26:08;4.10;;;1.85;;
50872;SDS011;72604;40.088;18.346;2024-03-07T03:29:49;5.03;;;1.30;;
50872;SDS011;72604;40.088;18.346;2024-03-07T03:33:31;12.70;;;4.43;;
50872;SDS011;72604;40.088;18.346;2024-03-07T03:37:13;8.10;;;2.40;;
50872;SDS011;72604;40.088;18.346;2024-03-07T03:40:54;4.75;;;1.23;;
50872;SDS011;72604;40.088;18.346;2024-03-07T03:44:35;6.22;;;1.70;;
50872;SDS011;72604;40.088;18.346;2024-03-07T03:48:16;4.90;;;1.17;;
50872;SDS011;72604;40.088;18.346;2024-03-07T03:51:57;5.45;;;1.20;;
50872;SDS011;72604;40.088;18.346;2024-03-07T03:55:41;5.13;;;0.77;;
50872;SDS011;72604;40.088;18.346;2024-03-07T03:59:21;4.28;;;1.20;;
50872;SDS011;72604;40.088;18.346;2024-03-07T04:03:02;2.60;;;0.80;;
50872;SDS011;72604;40.088;18.346;2024-03-07T04:06:44;4.60;;;1.92;;
50872;SDS011;72604;40.088;18.346;2024-03-07T04:10:25;3.67;;;0.90;;
50872;SDS011;72604;40.088;18.346;2024-03-07T04:14:07;4.35;;;0.90;;
50872;SDS011;72604;40.088;18.346;2024-03-07T04:17:49;4.35;;;0.90;;
50872;SDS011;72604;40.088;18.346;2024-03-07T04:21:30;4.75;;;1.00;;
50872;SDS011;72604;40.088;18.346;2024-03-07T04:25:11;8.48;;;2.42;;
50872;SDS011;72604;40.088;18.346;2024-03-07T04:28:52;23.48;;;15.70;;
50872;SDS011;72604;40.088;18.346;2024-03-07T04:32:35;25.85;;;17.70;;
50872;SDS011;72604;40.088;18.346;2024-03-07T04:36:17;20.17;;;12.95;;
50872;SDS011;72604;40.088;18.346;2024-03-07T04:39:58;12.27;;;7.85;;
50872;SDS011;72604;40.088;18.346;2024-03-07T04:43:38;15.40;;;11.88;;
50872;SDS011;72604;40.088;18.346;2024-03-07T04:47:19;7.32;;;4.25;;
50872;SDS011;72604;40.088;18.346;2024-03-07T04:51:01;7.53;;;4.93;;
50872;SDS011;72604;40.088;18.346;2024-03-07T04:54:43;12.45;;;11.25;;
50872;SDS011;72604;40.088;18.346;2024-03-07T04:58:24;7.07;;;3.95;;
50872;SDS011;72604;40.088;18.346;2024-03-07T05:02:05;4.50;;;2.45;;
50872;SDS011;72604;40.088;18.346;2024-03-07T05:05:47;3.65;;;1.60;;
50872;SDS011;72604;40.088;18.346;2024-03-07T05:09:29;3.22;;;1.65;;
50872;SDS011;72604;40.088;18.346;2024-03-07T05:13:10;3.40;;;1.00;;
50872;SDS011;72604;40.088;18.346;2024-03-07T05:16:51;5.15;;;1.50;;
50872;SDS011;72604;40.088;18.346;2024-03-07T05:20:44;7.35;;;3.92;;
50872;SDS011;72604;40.088;18.346;2024-03-07T05:24:25;7.65;;;4.95;;
50872;SDS011;72604;40.088;18.346;2024-03-07T05:28:08;6.55;;;1.80;;
50872;SDS011;72604;40.088;18.346;2024-03-07T05:31:49;4.00;;;1.60;;
50872;SDS011;72604;40.088;18.346;2024-03-07T05:35:29;3.65;;;1.42;;
50872;SDS011;72604;40.088;18.346;2024-03-07T05:39:11;2.65;;;1.45;;
50872;SDS011;72604;40.088;18.346;2024-03-07T05:42:52;6.25;;;1.50;;
50872;SDS011;72604;40.088;18.346;2024-03-07T05:46:37;5.68;;;1.63;;
50872;SDS011;72604;40.088;18.346;2024-03-07T05:50:21;6.47;;;1.77;;
50872;SDS011;72604;40.088;18.346;2024-03-07T05:54:02;3.72;;;1.50;;
50872;SDS011;72604;40.088;18.346;2024-03-07T05:57:46;3.92;;;2.08;;
50872;SDS011;72604;40.088;18.346;2024-03-07T06:01:27;3.97;;;2.60;;
50872;SDS011;72604;40.088;18.346;2024-03-07T06:05:10;3.40;;;1.35;;
50872;SDS011;72604;40.088;18.346;2024-03-07T06:08:55;6.05;;;2.28;;
50872;SDS011;72604;40.088;18.346;2024-03-07T06:12:36;8.60;;;2.55;;
50872;SDS011;72604;40.088;18.346;2024-03-07T06:16:22;5.35;;;2.70;;
50872;SDS011;72604;40.088;18.346;2024-03-07T06:20:03;7.95;;;2.83;;
50872;SDS011;72604;40.088;18.346;2024-03-07T06:23:49;7.38;;;2.20;;
50872;SDS011;72604;40.088;18.346;2024-03-07T06:27:39;5.07;;;1.80;;
50872;SDS011;72604;40.088;18.346;2024-03-07T06:31:28;6.22;;;2.72;;
50872;SDS011;72604;40.088;18.346;2024-03-07T06:35:09;8.70;;;4.60;;
50872;SDS011;72604;40.088;18.346;2024-03-07T06:38:51;9.60;;;4.30;;
50872;SDS011;72604;40.088;18.346;2024-03-07T06:42:32;5.80;;;2.70;;
50872;SDS011;72604;40.088;18.346;2024-03-07T06:46:13;4.07;;;2.75;;
50872;SDS011;72604;40.088;18.346;2024-03-07T06:49:55;7.18;;;1.90;;
50872;SDS011;72604;40.088;18.346;2024-03-07T06:53:36;2.67;;;1.40;;
50872;SDS011;72604;40.088;18.346;2024-03-07T06:57:18;2.25;;;1.33;;
50872;SDS011;72604;40.088;18.346;2024-03-07T07:00:59;2.45;;;0.70;;
50872;SDS011;72604;40.088;18.346;2024-03-07T07:04:40;3.38;;;0.90;;
50872;SDS011;72604;40.088;18.346;2024-03-07T07:08:22;8.45;;;1.10;;
50872;SDS011;72604;40.088;18.346;2024-03-07T07:12:03;3.53;;;1.10;;
50872;SDS011;72604;40.088;18.346;2024-03-07T07:15:46;3.65;;;0.80;;
50872;SDS011;72604;40.088;18.346;2024-03-07T07:19:26;3.75;;;0.90;;
50872;SDS011;72604;40.088;18.346;2024-03-07T07:23:08;3.60;;;1.10;;
50872;SDS011;72604;40.088;18.346;2024-03-07T07:26:49;4.25;;;1.25;;
50872;SDS011;72604;40.088;18.346;2024-03-07T07:30:31;5.10;;;1.30;;
50872;SDS011;72604;40.088;18.346;2024-03-07T07:34:14;3.83;;;0.98;;
50872;SDS011;72604;40.088;18.346;2024-03-07T07:37:54;6.82;;;1.10;;
50872;SDS011;72604;40.088;18.346;2024-03-07T07:41:36;4.18;;;1.27;;
50872;SDS011;72604;40.088;18.346;2024-03-07T07:45:17;4.88;;;1.50;;
50872;SDS011;72604;40.088;18.346;2024-03-07T07:48:59;6.32;;;1.33;;
50872;SDS011;72604;40.088;18.346;2024-03-07T07:52:44;4.60;;;1.10;;
50872;SDS011;72604;40.088;18.346;2024-03-07T07:56:27;4.00;;;1.42;;
50872;SDS011;72604;40.088;18.346;2024-03-07T08:00:10;3.85;;;1.23;;
50872;SDS011;72604;40.088;18.346;2024-03-07T08:03:51;3.65;;;1.42;;
50872;SDS011;72604;40.088;18.346;2024-03-07T08:07:32;3.92;;;1.40;;
50872;SDS011;72604;40.088;18.346;2024-03-07T08:11:14;5.13;;;2.22;;
50872;SDS011;72604;40.088;18.346;2024-03-07T08:14:55;4.25;;;1.30;;
50872;SDS011;72604;40.088;18.346;2024-03-07T08:18:35;6.90;;;1.65;;
50872;SDS011;72604;40.088;18.346;2024-03-07T08:22:18;4.78;;;1.50;;
50872;SDS011;72604;40.088;18.346;2024-03-07T08:25:59;6.28;;;1.42;;
50872;SDS011;72604;40.088;18.346;2024-03-07T08:29:41;4.28;;;1.40;;
50872;SDS011;72604;40.088;18.346;2024-03-07T08:33:23;5.05;;;1.83;;
50872;SDS011;72604;40.088;18.346;2024-03-07T08:37:04;8.05;;;1.98;;
50872;SDS011;72604;40.088;18.346;2024-03-07T08:40:45;4.30;;;2.35;;
50872;SDS011;72604;40.088;18.346;2024-03-07T08:44:26;4.57;;;1.50;;
50872;SDS011;72604;40.088;18.346;2024-03-07T08:48:08;4.53;;;1.40;;
50872;SDS011;72604;40.088;18.346;2024-03-07T08:51:50;7.50;;;3.53;;
50872;SDS011;72604;40.088;18.346;2024-03-07T08:55:31;4.70;;;1.98;;
50872;SDS011;72604;40.088;18.346;2024-03-07T08:59:12;5.32;;;1.40;;
50872;SDS011;72604;40.088;18.346;2024-03-07T09:02:57;7.45;;;2.90;;
50872;SDS011;72604;40.088;18.346;2024-03-07T09:06:40;5.32;;;2.47;;
50872;SDS011;72604;40.088;18.346;2024-03-07T09:10:22;8.30;;;3.22;;
50872;SDS011;72604;40.088;18.346;2024-03-07T09:14:05;6.43;;;2.60;;
50872;SDS011;72604;40.088;18.346;2024-03-07T09:17:49;5.05;;;1.58;;
50872;SDS011;72604;40.088;18.346;2024-03-07T09:21:30;7.63;;;2.58;;
50872;SDS011;72604;40.088;18.346;2024-03-07T09:25:12;8.38;;;3.58;;
50872;SDS011;72604;40.088;18.346;2024-03-07T09:28:53;3.20;;;1.15;;
50872;SDS011;72604;40.088;18.346;2024-03-07T09:32:35;3.55;;;1.38;;
50872;SDS011;72604;40.088;18.346;2024-03-07T09:36:17;9.13;;;2.42;;
50872;SDS011;72604;40.088;18.346;2024-03-07T09:39:58;6.70;;;2.17;;
50872;SDS011;72604;40.088;18.346;2024-03-07T09:43:40;7.13;;;1.70;;
50872;SDS011;72604;40.088;18.346;2024-03-07T09:47:23;5.05;;;1.80;;
50872;SDS011;72604;40.088;18.346;2024-03-07T09:51:05;13.23;;;1.92;;
50872;SDS011;72604;40.088;18.346;2024-03-07T09:54:49;4.03;;;1.08;;
50872;SDS011;72604;40.088;18.346;2024-03-07T09:58:30;5.65;;;1.70;;
50872;SDS011;72604;40.088;18.346;2024-03-07T10:02:13;4.13;;;1.50;;
50872;SDS011;72604;40.088;18.346;2024-03-07T10:05:56;9.93;;;1.42;;
50872;SDS011;72604;40.088;18.346;2024-03-07T10:09:37;4.10;;;1.42;;
50872;SDS011;72604;40.088;18.346;2024-03-07T10:13:20;4.57;;;1.10;;
50872;SDS011;72604;40.088;18.346;2024-03-07T10:17:02;4.22;;;1.13;;
50872;SDS011;72604;40.088;18.346;2024-03-07T10:20:45;5.07;;;1.20;;
50872;SDS011;72604;40.088;18.346;2024-03-07T10:24:26;3.92;;;1.40;;
50872;SDS011;72604;40.088;18.346;2024-03-07T10:28:08;2.83;;;0.70;;
50872;SDS011;72604;40.088;18.346;2024-03-07T10:31:50;2.92;;;0.90;;
50872;SDS011;72604;40.088;18.346;2024-03-07T10:35:36;5.80;;;1.10;;
50872;SDS011;72604;40.088;18.346;2024-03-07T10:39:18;6.07;;;1.65;;
50872;SDS011;72604;40.088;18.346;2024-03-07T10:43:01;6.32;;;1.30;;
50872;SDS011;72604;40.088;18.346;2024-03-07T10:46:51;2.25;;;0.90;;
50872;SDS011;72604;40.088;18.346;2024-03-07T10:50:37;3.97;;;1.20;;
50872;SDS011;72604;40.088;18.346;2024-03-07T10:54:22;3.17;;;0.88;;
50872;SDS011;72604;40.088;18.346;2024-03-07T10:58:09;3.83;;;1.27;;
50872;SDS011;72604;40.088;18.346;2024-03-07T11:01:53;6.32;;;2.30;;
50872;SDS011;72604;40.088;18.346;2024-03-07T11:05:38;4.10;;;1.10;;
50872;SDS011;72604;40.088;18.346;2024-03-07T11:09:19;4.65;;;1.40;;
50872;SDS011;72604;40.088;18.346;2024-03-07T11:13:05;5.18;;;1.70;;
50872;SDS011;72604;40.088;18.346;2024-03-07T11:16:49;5.65;;;3.10;;
50872;SDS011;72604;40.088;18.346;2024-03-07T11:20:34;6.50;;;2.10;;
50872;SDS011;72604;40.088;18.346;2024-03-07T11:24:24;4.43;;;1.15;;
50872;SDS011;72604;40.088;18.346;2024-03-07T11:28:07;5.43;;;1.10;;
50872;SDS011;72604;40.088;18.346;2024-03-07T11:31:47;3.78;;;0.82;;
50872;SDS011;72604;40.088;18.346;2024-03-07T11:35:32;6.65;;;1.15;;
50872;SDS011;72604;40.088;18.346;2024-03-07T11:43:18;7.15;;;1.00;;
50872;SDS011;72604;40.088;18.346;2024-03-07T11:46:59;4.53;;;1.10;;
50872;SDS011;72604;40.088;18.346;2024-03-07T11:50:49;5.22;;;1.23;;
50872;SDS011;72604;40.088;18.346;2024-03-07T11:54:30;6.20;;;1.88;;
50872;SDS011;72604;40.088;18.346;2024-03-07T11:58:12;5.28;;;1.60;;
50872;SDS011;72604;40.088;18.346;2024-03-07T12:01:57;5.85;;;2.53;;
50872;SDS011;72604;40.088;18.346;2024-03-07T12:05:41;2.92;;;1.08;;
50872;SDS011;72604;40.088;18.346;2024-03-07T12:09:23;3.70;;;1.00;;
50872;SDS011;72604;40.088;18.346;2024-03-07T12:13:05;3.47;;;1.20;;
50872;SDS011;72604;40.088;18.346;2024-03-07T12:16:46;2.53;;;1.10;;
50872;SDS011;72604;40.088;18.346;2024-03-07T12:20:29;3.58;;;1.10;;
50872;SDS011;72604;40.088;18.346;2024-03-07T12:24:13;4.72;;;1.20;;
50872;SDS011;72604;40.088;18.346;2024-03-07T12:28:01;2.58;;;1.13;;
50872;SDS011;72604;40.088;18.346;2024-03-07T12:31:45;4.28;;;1.35;;
50872;SDS011;72604;40.088;18.346;2024-03-07T12:35:26;5.07;;;1.40;;
50872;SDS011;72604;40.088;18.346;2024-03-07T12:39:09;2.72;;;1.20;;
50872;SDS011;72604;40.088;18.346;2024-03-07T12:43:12;4.70;;;1.30;;
50872;SDS011;72604;40.088;18.346;2024-03-07T12:46:54;5.30;;;1.80;;
50872;SDS011;72604;40.088;18.346;2024-03-07T12:50:35;3.33;;;1.10;;
50872;SDS011;72604;40.088;18.346;2024-03-07T12:54:18;5.85;;;1.40;;
50872;SDS011;72604;40.088;18.346;2024-03-07T12:58:00;4.97;;;1.35;;
50872;SDS011;72604;40.088;18.346;2024-03-07T13:01:41;4.13;;;2.20;;
50872;SDS011;72604;40.088;18.346;2024-03-07T13:05:25;6.03;;;1.58;;
50872;SDS011;72604;40.088;18.346;2024-03-07T13:09:06;2.13;;;0.90;;
50872;SDS011;72604;40.088;18.346;2024-03-07T13:12:51;3.05;;;0.98;;
50872;SDS011;72604;40.088;18.346;2024-03-07T13:16:33;2.45;;;1.02;;
50872;SDS011;72604;40.088;18.346;2024-03-07T13:20:14;2.53;;;1.15;;
50872;SDS011;72604;40.088;18.346;2024-03-07T13:23:55;4.97;;;1.10;;
50872;SDS011;72604;40.088;18.346;2024-03-07T13:27:38;3.72;;;1.13;;
50872;SDS011;72604;40.088;18.346;2024-03-07T13:31:21;3.08;;;1.00;;
50872;SDS011;72604;40.088;18.346;2024-03-07T13:35:03;1.65;;;0.80;;
50872;SDS011;72604;40.088;18.346;2024-03-07T13:38:51;1.63;;;0.70;;
50872;SDS011;72604;40.088;18.346;2024-03-07T13:42:33;2.92;;;1.00;;
50872;SDS011;72604;40.088;18.346;2024-03-07T13:46:15;4.45;;;1.73;;
50872;SDS011;72604;40.088;18.346;2024-03-07T13:49:59;2.92;;;0.88;;
50872;SDS011;72604;40.088;18.346;2024-03-07T13:53:40;4.30;;;1.00;;
50872;SDS011;72604;40.088;18.346;2024-03-07T13:57:33;6.07;;;1.45;;
50872;SDS011;72604;40.088;18.346;2024-03-07T14:01:21;5.38;;;1.55;;
50872;SDS011;72604;40.088;18.346;2024-03-07T14:05:19;3.70;;;1.10;;
50872;SDS011;72604;40.088;18.346;2024-03-07T14:09:38;1.67;;;0.93;;
50872;SDS011;72604;40.088;18.346;2024-03-07T14:13:28;3.63;;;0.93;;
50872;SDS011;72604;40.088;18.346;2024-03-07T14:21:34;2.53;;;0.90;;
50872;SDS011;72604;40.088;18.346;2024-03-07T14:25:37;3.72;;;1.08;;
50872;SDS011;72604;40.088;18.346;2024-03-07T14:29:26;7.22;;;4.63;;
50872;SDS011;72604;40.088;18.346;2024-03-07T14:33:11;10.98;;;8.68;;
50872;SDS011;72604;40.088;18.346;2024-03-07T14:36:56;3.13;;;1.40;;
50872;SDS011;72604;40.088;18.346;2024-03-07T14:40:38;6.45;;;5.50;;
50872;SDS011;72604;40.088;18.346;2024-03-07T14:44:19;4.50;;;2.38;;
50872;SDS011;72604;40.088;18.346;2024-03-07T14:48:00;6.70;;;2.00;;
50872;SDS011;72604;40.088;18.346;2024-03-07T14:51:43;9.70;;;4.70;;
50872;SDS011;72604;40.088;18.346;2024-03-07T14:55:28;6.43;;;2.65;;
50872;SDS011;72604;40.088;18.346;2024-03-07T14:59:10;12.93;;;6.20;;
50872;SDS011;72604;40.088;18.346;2024-03-07T15:02:52;7.53;;;4.68;;
50872;SDS011;72604;40.088;18.346;2024-03-07T15:06:37;7.80;;;4.85;;
50872;SDS011;72604;40.088;18.346;2024-03-07T15:10:19;26.27;;;19.45;;
50872;SDS011;72604;40.088;18.346;2024-03-07T15:14:05;8.20;;;3.97;;
50872;SDS011;72604;40.088;18.346;2024-03-07T15:17:48;7.85;;;2.10;;
50872;SDS011;72604;40.088;18.346;2024-03-07T15:21:30;8.45;;;3.35;;
50872;SDS011;72604;40.088;18.346;2024-03-07T15:25:12;5.35;;;2.58;;
50872;SDS011;72604;40.088;18.346;2024-03-07T15:28:53;16.20;;;10.93;;
50872;SDS011;72604;40.088;18.346;2024-03-07T15:32:36;7.47;;;3.63;;
50872;SDS011;72604;40.088;18.346;2024-03-07T15:36:18;6.80;;;3.60;;
50872;SDS011;72604;40.088;18.346;2024-03-07T15:40:04;9.75;;;5.75;;
50872;SDS011;72604;40.088;18.346;2024-03-07T15:43:51;68.75;;;59.53;;
50872;SDS011;72604;40.088;18.346;2024-03-07T15:47:33;8.77;;;2.97;;
50872;SDS011;72604;40.088;18.346;2024-03-07T15:51:16;9.02;;;3.47;;
50872;SDS011;72604;40.088;18.346;2024-03-07T15:54:58;8.30;;;3.90;;
50872;SDS011;72604;40.088;18.346;2024-03-07T15:58:40;60.75;;;38.00;;
50872;SDS011;72604;40.088;18.346;2024-03-07T16:02:21;8.43;;;3.00;;
50872;SDS011;72604;40.088;18.346;2024-03-07T16:06:03;10.70;;;5.88;;
50872;SDS011;72604;40.088;18.346;2024-03-07T16:09:46;6.75;;;3.47;;
50872;SDS011;72604;40.088;18.346;2024-03-07T16:13:27;15.32;;;9.90;;
50872;SDS011;72604;40.088;18.346;2024-03-07T16:17:08;9.30;;;6.30;;
50872;SDS011;72604;40.088;18.346;2024-03-07T16:20:49;4.90;;;3.35;;
50872;SDS011;72604;40.088;18.346;2024-03-07T16:24:30;5.82;;;3.97;;
50872;SDS011;72604;40.088;18.346;2024-03-07T16:28:13;4.03;;;2.05;;
50872;SDS011;72604;40.088;18.346;2024-03-07T16:31:55;3.72;;;1.83;;
50872;SDS011;72604;40.088;18.346;2024-03-07T16:35:37;4.93;;;2.80;;
50872;SDS011;72604;40.088;18.346;2024-03-07T16:39:18;4.63;;;3.00;;
50872;SDS011;72604;40.088;18.346;2024-03-07T16:42:59;6.72;;;3.78;;
50872;SDS011;72604;40.088;18.346;2024-03-07T16:46:42;8.30;;;5.28;;
50872;SDS011;72604;40.088;18.346;2024-03-07T16:50:23;7.47;;;4.43;;
50872;SDS011;72604;40.088;18.346;2024-03-07T16:54:06;7.93;;;4.68;;
50872;SDS011;72604;40.088;18.346;2024-03-07T16:57:48;6.13;;;3.85;;
50872;SDS011;72604;40.088;18.346;2024-03-07T17:01:30;9.07;;;4.63;;
50872;SDS011;72604;40.088;18.346;2024-03-07T17:05:13;8.70;;;4.80;;
50872;SDS011;72604;40.088;18.346;2024-03-07T17:08:55;3.15;;;2.80;;
50872;SDS011;72604;40.088;18.346;2024-03-07T17:12:39;8.95;;;5.20;;
50872;SDS011;72604;40.088;18.346;2024-03-07T17:16:22;8.43;;;6.03;;
50872;SDS011;72604;40.088;18.346;2024-03-07T17:20:04;7.28;;;5.82;;
50872;SDS011;72604;40.088;18.346;2024-03-07T17:23:47;7.80;;;6.05;;
50872;SDS011;72604;40.088;18.346;2024-03-07T17:27:28;8.38;;;6.22;;
50872;SDS011;72604;40.088;18.346;2024-03-07T17:31:09;42.88;;;25.08;;
50872;SDS011;72604;40.088;18.346;2024-03-07T17:34:51;18.52;;;11.05;;
50872;SDS011;72604;40.088;18.346;2024-03-07T17:38:32;16.65;;;14.65;;
50872;SDS011;72604;40.088;18.346;2024-03-07T17:42:16;16.92;;;15.23;;
50872;SDS011;72604;40.088;18.346;2024-03-07T17:45:56;14.60;;;10.93;;
50872;SDS011;72604;40.088;18.346;2024-03-07T17:49:39;17.13;;;13.32;;
50872;SDS011;72604;40.088;18.346;2024-03-07T17:53:20;17.45;;;13.57;;
50872;SDS011;72604;40.088;18.346;2024-03-07T17:57:01;15.20;;;10.77;;
50872;SDS011;72604;40.088;18.346;2024-03-07T18:00:44;13.10;;;8.02;;
50872;SDS011;72604;40.088;18.346;2024-03-07T18:04:26;9.98;;;6.85;;
50872;SDS011;72604;40.088;18.346;2024-03-07T18:08:07;19.95;;;15.45;;
50872;SDS011;72604;40.088;18.346;2024-03-07T18:11:53;14.67;;;12.73;;
50872;SDS011;72604;40.088;18.346;2024-03-07T18:15:35;16.35;;;13.35;;
50872;SDS011;72604;40.088;18.346;2024-03-07T18:19:20;20.70;;;16.90;;
50872;SDS011;72604;40.088;18.346;2024-03-07T18:23:01;12.27;;;8.93;;
50872;SDS011;72604;40.088;18.346;2024-03-07T18:26:42;14.27;;;10.30;;
50872;SDS011;72604;40.088;18.346;2024-03-07T18:30:26;12.20;;;9.20;;
50872;SDS011;72604;40.088;18.346;2024-03-07T18:34:09;12.60;;;10.75;;
50872;SDS011;72604;40.088;18.346;2024-03-07T18:37:52;15.07;;;13.45;;
50872;SDS011;72604;40.088;18.346;2024-03-07T18:41:33;33.42;;;29.85;;
50872;SDS011;72604;40.088;18.346;2024-03-07T18:45:14;20.80;;;17.85;;
50872;SDS011;72604;40.088;18.346;2024-03-07T18:48:58;11.88;;;9.43;;
50872;SDS011;72604;40.088;18.346;2024-03-07T18:52:42;28.13;;;21.90;;
50872;SDS011;72604;40.088;18.346;2024-03-07T18:56:25;31.58;;;22.25;;
50872;SDS011;72604;40.088;18.346;2024-03-07T19:00:07;33.33;;;25.05;;
50872;SDS011;72604;40.088;18.346;2024-03-07T19:04:07;34.42;;;22.98;;
50872;SDS011;72604;40.088;18.346;2024-03-07T19:07:48;23.40;;;16.48;;
50872;SDS011;72604;40.088;18.346;2024-03-07T19:11:32;20.48;;;13.88;;
50872;SDS011;72604;40.088;18.346;2024-03-07T19:15:16;13.93;;;10.65;;
50872;SDS011;72604;40.088;18.346;2024-03-07T19:18:58;8.85;;;7.18;;
50872;SDS011;72604;40.088;18.346;2024-03-07T19:22:41;12.93;;;10.32;;
50872;SDS011;72604;40.088;18.346;2024-03-07T19:26:22;10.18;;;8.55;;
50872;SDS011;72604;40.088;18.346;2024-03-07T19:30:05;8.05;;;6.65;;
50872;SDS011;72604;40.088;18.346;2024-03-07T19:33:56;12.02;;;9.30;;
50872;SDS011;72604;40.088;18.346;2024-03-07T19:37:37;19.98;;;17.92;;
50872;SDS011;72604;40.088;18.346;2024-03-07T19:41:18;15.35;;;12.57;;
50872;SDS011;72604;40.088;18.346;2024-03-07T19:45:01;24.75;;;20.52;;
50872;SDS011;72604;40.088;18.346;2024-03-07T19:48:44;25.77;;;19.73;;
50872;SDS011;72604;40.088;18.346;2024-03-07T19:52:29;23.33;;;18.33;;
50872;SDS011;72604;40.088;18.346;2024-03-07T19:56:09;19.52;;;15.95;;
50872;SDS011;72604;40.088;18.346;2024-03-07T19:59:58;27.80;;;21.90;;
50872;SDS011;72604;40.088;18.346;2024-03-07T20:03:53;25.17;;;19.90;;
50872;SDS011;72604;40.088;18.346;2024-03-07T20:07:34;19.25;;;16.33;;
50872;SDS011;72604;40.088;18.346;2024-03-07T20:11:15;18.77;;;16.13;;
50872;SDS011;72604;40.088;18.346;2024-03-07T20:14:58;17.25;;;12.32;;
50872;SDS011;72604;40.088;18.346;2024-03-07T20:18:40;12.60;;;11.07;;
50872;SDS011;72604;40.088;18.346;2024-03-07T20:22:25;12.38;;;10.43;;
50872;SDS011;72604;40.088;18.346;2024-03-07T20:26:06;13.00;;;10.40;;
50872;SDS011;72604;40.088;18.346;2024-03-07T20:29:48;15.23;;;10.98;;
50872;SDS011;72604;40.088;18.346;2024-03-07T20:33:30;20.35;;;15.57;;
50872;SDS011;72604;40.088;18.346;2024-03-07T20:37:11;18.30;;;11.60;;
50872;SDS011;72604;40.088;18.346;2024-03-07T20:40:54;24.48;;;16.30;;
50872;SDS011;72604;40.088;18.346;2024-03-07T20:44:36;17.38;;;14.00;;
50872;SDS011;72604;40.088;18.346;2024-03-07T20:48:18;18.75;;;14.63;;
50872;SDS011;72604;40.088;18.346;2024-03-07T20:52:02;19.83;;;13.82;;
50872;SDS011;72604;40.088;18.346;2024-03-07T20:55:44;22.85;;;16.10;;
50872;SDS011;72604;40.088;18.346;2024-03-07T20:59:26;19.20;;;12.77;;
50872;SDS011;72604;40.088;18.346;2024-03-07T21:03:10;19.90;;;13.82;;
50872;SDS011;72604;40.088;18.346;2024-03-07T21:06:51;16.30;;;11.98;;
50872;SDS011;72604;40.088;18.346;2024-03-07T21:10:33;19.33;;;13.32;;
50872;SDS011;72604;40.088;18.346;2024-03-07T21:14:15;18.67;;;14.48;;
50872;SDS011;72604;40.088;18.346;2024-03-07T21:17:58;27.17;;;21.75;;
50872;SDS011;72604;40.088;18.346;2024-03-07T21:21:40;30.05;;;24.02;;
50872;SDS011;72604;40.088;18.346;2024-03-07T21:25:22;31.08;;;23.13;;
50872;SDS011;72604;40.088;18.346;2024-03-07T21:29:03;27.40;;;20.80;;
50872;SDS011;72604;40.088;18.346;2024-03-07T21:32:44;23.50;;;17.88;;
50872;SDS011;72604;40.088;18.346;2024-03-07T21:36:27;25.50;;;19.35;;
50872;SDS011;72604;40.088;18.346;2024-03-07T21:40:08;24.52;;;16.75;;
50872;SDS011;72604;40.088;18.346;2024-03-07T21:43:54;21.65;;;15.88;;
50872;SDS011;72604;40.088;18.346;2024-03-07T21:47:37;27.00;;;20.40;;
50872;SDS011;72604;40.088;18.346;2024-03-07T21:55:53;17.48;;;13.52;;
50872;SDS011;72604;40.088;18.346;2024-03-07T21:59:37;18.63;;;14.05;;
50872;SDS011;72604;40.088;18.346;2024-03-07T22:13:04;35.05;;;27.25;;
50872;SDS011;72604;40.088;18.346;2024-03-07T22:16:49;39.78;;;34.55;;